createdAt,value
2018-04-15T00:00:07.053Z,2.19
2018-04-15T00:05:57.703Z,2.61
2018-04-15T00:11:48.438Z,1.95
2018-04-15T00:17:39.108Z,2.04
2018-04-15T00:23:29.823Z,2.37
2018-04-15T00:29:20.516Z,2.31
2018-04-15T00:35:11.187Z,2.58
2018-04-15T00:41:01.859Z,2.26
2018-04-15T00:46:52.541Z,1.95
2018-04-15T00:52:43.205Z,2.17
2018-04-15T00:58:33.937Z,1.5
2018-04-15T01:04:24.642Z,1.55
2018-04-15T01:10:15.267Z,1.9
2018-04-15T01:16:06.032Z,1.64
2018-04-15T01:21:56.677Z,1.67
2018-04-15T01:27:47.381Z,1.98
2018-04-15T01:33:38.056Z,1.51
2018-04-15T01:39:28.752Z,1.35
2018-04-15T01:45:19.450Z,1.52
2018-04-15T01:51:10.104Z,1.7
2018-04-15T01:57:00.781Z,1.57
2018-04-15T02:02:51.488Z,2.21
2018-04-15T02:08:42.208Z,1.59
2018-04-15T02:14:32.925Z,1.52
2018-04-15T02:20:23.601Z,3.13
2018-04-15T02:26:14.295Z,2.52
2018-04-15T02:32:05.003Z,1.81
2018-04-15T02:37:55.654Z,1.67
2018-04-15T02:43:46.357Z,1.99
2018-04-15T02:49:37.067Z,2.41
2018-04-15T02:55:27.763Z,2.36
2018-04-15T03:01:18.503Z,2.31
2018-04-15T03:07:09.175Z,2.44
2018-04-15T03:12:59.904Z,2.79
2018-04-15T03:18:50.564Z,1.85
2018-04-15T03:24:41.257Z,2.05
2018-04-15T03:30:31.966Z,2.15
2018-04-15T03:36:22.631Z,1.99
2018-04-15T03:42:13.350Z,2.01
2018-04-15T03:48:04.031Z,2.03
2018-04-15T03:53:54.693Z,2.54
2018-04-15T03:59:45.425Z,2.1
2018-04-15T04:05:36.106Z,1.83
2018-04-15T04:11:26.845Z,2.09
2018-04-15T04:17:17.497Z,2.18
2018-04-15T04:23:08.194Z,2.06
2018-04-15T04:28:58.903Z,1.9
2018-04-15T04:34:49.569Z,2.22
2018-04-15T04:40:40.245Z,1.98
2018-04-15T04:46:30.964Z,2.66
2018-04-15T04:52:21.681Z,2.63
2018-04-15T04:58:12.366Z,2.1
2018-04-15T05:04:03.046Z,2.1
2018-04-15T05:09:53.734Z,2.89
2018-04-15T05:15:44.421Z,2.84
2018-04-15T05:21:35.134Z,2.17
2018-04-15T05:27:25.836Z,2.25
2018-04-15T05:33:16.505Z,2.11
2018-04-15T05:39:07.190Z,2.09
2018-04-15T05:44:57.904Z,2.03
2018-04-15T05:50:48.575Z,2.95
2018-04-15T05:56:39.310Z,2.55
2018-04-15T06:02:30.023Z,2.94
2018-04-15T06:08:20.715Z,2.4
2018-04-15T06:14:11.374Z,2.59
2018-04-15T06:20:02.128Z,2.89
2018-04-15T06:25:52.779Z,2.15
2018-04-15T06:31:43.495Z,3.31
2018-04-15T06:37:34.217Z,2.22
2018-04-15T06:43:24.923Z,3.63
2018-04-15T06:49:15.644Z,2.72
2018-04-15T06:55:06.256Z,2.6
2018-04-15T07:00:56.969Z,2.57
2018-04-15T07:06:47.650Z,2.4
2018-04-15T07:12:38.346Z,2.21
2018-04-15T07:18:29.082Z,2.83
2018-04-15T07:24:19.737Z,3.64
2018-04-15T07:30:10.436Z,2.41
2018-04-15T07:36:01.132Z,2.88
2018-04-15T07:41:51.832Z,2.37
2018-04-15T07:47:42.556Z,3.43
2018-04-15T07:53:33.227Z,2.35
2018-04-15T07:59:23.903Z,3.14
2018-04-15T08:05:14.641Z,2.76
2018-04-15T08:11:05.387Z,2.65
2018-04-15T08:16:56.103Z,3.09
2018-04-15T08:22:46.754Z,2.64
2018-04-15T08:28:37.425Z,3.31
2018-04-15T08:34:28.144Z,3.45
2018-04-15T08:40:18.847Z,3.25
2018-04-15T08:46:09.509Z,3.01
2018-04-15T08:52:00.168Z,3.93
2018-04-15T08:57:50.902Z,4.26
2018-04-15T09:03:41.571Z,3.47
2018-04-15T09:09:32.325Z,3.06
2018-04-15T09:15:23.066Z,3.06
2018-04-15T09:21:13.775Z,2.95
2018-04-15T09:27:04.394Z,3.73
2018-04-15T09:32:55.116Z,3.07
2018-04-15T09:38:45.810Z,3.12
2018-04-15T09:44:36.476Z,3.6
2018-04-15T09:50:27.192Z,4
2018-04-15T09:56:17.877Z,3.56
2018-04-15T10:02:08.518Z,4.85
2018-04-15T10:07:59.966Z,4.13
2018-04-15T10:13:49.953Z,5.03
2018-04-15T10:19:40.618Z,5.04
2018-04-15T10:25:31.346Z,4.79
2018-04-15T10:31:22.103Z,5.18
2018-04-15T10:37:12.790Z,5.43
2018-04-15T10:43:03.433Z,6.48
2018-04-15T10:48:54.141Z,5.5
2018-04-15T10:54:44.894Z,3.76
2018-04-15T11:00:35.525Z,4.19
2018-04-15T11:06:26.237Z,4.31
2018-04-15T11:12:16.917Z,4.28
2018-04-15T11:18:07.612Z,4.98
2018-04-15T11:23:58.262Z,3.98
2018-04-15T11:29:49.010Z,3.95
2018-04-15T11:35:39.721Z,4.73
2018-04-15T11:41:30.417Z,4.76
2018-04-15T11:47:21.074Z,5.36
2018-04-15T11:53:11.821Z,5.67
2018-04-15T11:59:02.534Z,4.98
2018-04-15T12:04:53.219Z,5.02
2018-04-15T12:10:43.875Z,5.91
2018-04-15T12:16:34.592Z,4.46
2018-04-15T12:22:25.327Z,4.61
2018-04-15T12:28:16.000Z,4.67
2018-04-15T12:34:06.738Z,4.26
2018-04-15T12:39:57.508Z,4.35
2018-04-15T12:41:07.687Z,6.31
2018-04-15T12:46:58.438Z,4.87
2018-04-15T12:52:49.153Z,5.55
2018-04-15T12:58:39.858Z,6.29
2018-04-15T13:04:30.588Z,6.34
2018-04-15T13:10:21.308Z,5.78
2018-04-15T13:16:12.044Z,7.37
2018-04-15T13:22:02.699Z,6.72
2018-04-15T13:27:53.422Z,7.93
2018-04-15T13:33:44.093Z,11.98
2018-04-15T13:39:34.808Z,7.01
2018-04-15T13:45:25.474Z,18.15
2018-04-15T13:51:16.243Z,6.95
2018-04-15T13:57:06.900Z,5.68
2018-04-15T14:02:57.620Z,6.6
2018-04-15T14:08:48.330Z,5.88
2018-04-15T14:14:39.033Z,5.84
2018-04-15T14:20:29.778Z,4.89
2018-04-15T14:26:20.444Z,4.59
2018-04-15T14:32:11.185Z,4.41
2018-04-15T14:38:01.892Z,4.79
2018-04-15T14:43:52.558Z,4.82
2018-04-15T14:49:43.258Z,5.31
2018-04-15T14:55:33.939Z,5.21
2018-04-15T15:01:24.677Z,6.02
2018-04-15T15:07:15.361Z,5.86
2018-04-15T15:13:06.070Z,6.11
2018-04-15T15:18:56.739Z,6.06
2018-04-15T15:24:47.435Z,6.67
2018-04-15T15:30:38.176Z,7.15
2018-04-15T15:36:28.921Z,8.11
2018-04-15T15:42:19.561Z,6.25
2018-04-15T15:48:10.271Z,6.37
2018-04-15T15:54:00.985Z,6.07
2018-04-15T15:59:51.657Z,5.07
2018-04-15T16:05:42.358Z,4.85
2018-04-15T16:11:33.084Z,4.89
2018-04-15T16:17:23.846Z,4.01
2018-04-15T16:23:14.520Z,10.11
2018-04-15T16:29:05.226Z,6.37
2018-04-15T16:34:55.932Z,5.14
2018-04-15T16:40:46.584Z,4.8
2018-04-15T16:46:37.334Z,4.9
2018-04-15T16:52:27.998Z,3.88
2018-04-15T16:58:18.716Z,4.11
2018-04-15T17:01:57.587Z,6.16
2018-04-15T17:07:48.229Z,4.38
2018-04-15T17:13:38.931Z,5.18
2018-04-15T17:19:29.643Z,3.92
2018-04-15T17:25:20.365Z,4.09
2018-04-15T17:31:11.023Z,4.45
2018-04-15T17:37:01.793Z,5.18
2018-04-15T17:42:52.477Z,9.46
2018-04-15T17:48:43.219Z,7.21
2018-04-15T17:54:34.111Z,7.34
2018-04-15T18:00:24.582Z,5.32
2018-04-15T18:06:15.264Z,4.82
2018-04-15T18:12:05.963Z,6.37
2018-04-15T18:17:56.715Z,5.48
2018-04-15T18:23:47.442Z,5.28
2018-04-15T18:29:38.038Z,5.81
2018-04-15T18:35:28.781Z,5.6
2018-04-15T18:41:19.501Z,4.98
2018-04-15T18:47:10.252Z,5.82
2018-04-15T18:53:00.899Z,12.19
2018-04-15T18:58:51.602Z,5.64
2018-04-15T19:04:42.274Z,5.08
2018-04-15T19:10:32.985Z,6.54
2018-04-15T19:16:23.647Z,6.11
2018-04-15T19:22:14.361Z,5.16
2018-04-15T19:28:05.116Z,8.18
2018-04-15T19:33:55.772Z,6.44
2018-04-15T19:39:46.497Z,4.64
2018-04-15T19:45:37.165Z,4.44
2018-04-15T19:51:27.837Z,4.46
2018-04-15T19:57:18.536Z,4.72
2018-04-15T20:03:09.279Z,4.94
2018-04-15T20:08:59.968Z,6.63
2018-04-15T20:14:50.645Z,6.92
2018-04-15T20:20:41.391Z,8.43
2018-04-15T20:26:32.060Z,5.17
2018-04-15T20:32:22.724Z,7.12
2018-04-15T20:38:13.491Z,4.96
2018-04-15T20:44:04.169Z,6.34
2018-04-15T20:49:54.845Z,4.86
2018-04-15T20:55:45.557Z,14.68
2018-04-15T21:01:36.241Z,6.3
2018-04-15T21:07:26.952Z,4.65
2018-04-15T21:13:17.595Z,6.96
2018-04-15T21:19:08.301Z,4.78
2018-04-15T21:24:59.216Z,7.98
2018-04-15T21:30:50.344Z,7.54
2018-04-15T21:36:40.482Z,9.04
2018-04-15T21:42:31.097Z,6.41
2018-04-15T21:48:21.876Z,7.36
2018-04-15T21:54:12.499Z,5.02
2018-04-15T22:00:03.324Z,5.03
2018-04-15T22:05:53.943Z,6.79
2018-04-15T22:11:44.586Z,4.22
2018-04-15T22:17:35.322Z,3.69
2018-04-15T22:23:25.963Z,4.85
2018-04-15T22:29:16.646Z,4.81
2018-04-15T22:35:07.339Z,6.06
2018-04-15T22:40:58.039Z,4.03
2018-04-15T22:46:48.726Z,3.85
2018-04-15T22:52:39.777Z,4.95
2018-04-15T22:58:30.079Z,4.45
2018-04-15T23:04:20.777Z,4.07
2018-04-15T23:10:11.441Z,4.55
2018-04-15T23:16:02.182Z,5.29
2018-04-15T23:21:52.822Z,4.91
2018-04-15T23:27:43.522Z,4.97
2018-04-15T23:33:34.183Z,5.03
2018-04-15T23:39:24.882Z,10.84
2018-04-15T23:45:15.554Z,7.98
2018-04-15T23:51:06.272Z,4.36
2018-04-15T23:56:56.916Z,4.45
